Time;durP1;ratioP1;P1;durP2;ratioP2;P2;SDS_P1;SDS_P2;PMS_P1;PMS_P2;Temp;Humidity;BMP_temperature;BMP_pressure;BME280_temperature;BME280_humidity;BME280_pressure;Samples;Min_cycle;Max_cycle;Signal;HPM_P1;HPM_P2
2021/04/19 00:00:10;;;;;;;12.02;6.70;;;;;;;8.20;71.69;102179.13;5136890;27;20027;-40
2021/04/19 00:02:35;;;;;;;10.88;5.97;;;;;;;8.25;71.28;102176.72;5136847;27;20106;-41
2021/04/19 00:05:01;;;;;;;12.43;6.63;;;;;;;8.15;70.98;102173.44;5136372;27;20074;-41
2021/04/19 00:07:27;;;;;;;9.60;6.45;;;;;;;8.09;71.04;102169.63;5136985;27;20066;-41
2021/04/19 00:09:52;;;;;;;10.90;6.43;;;;;;;8.03;70.99;102173.03;5135270;27;20050;-40
2021/04/19 00:12:18;;;;;;;11.40;6.70;;;;;;;8.05;70.80;102162.06;5136564;27;20397;-41
2021/04/19 00:14:43;;;;;;;13.93;6.97;;;;;;;8.07;71.23;102163.59;5136704;27;20070;-40
2021/04/19 00:17:08;;;;;;;11.10;6.20;;;;;;;7.98;70.96;102157.41;5136491;27;20083;-41
2021/04/19 00:19:33;;;;;;;11.23;6.67;;;;;;;7.91;72.15;102159.19;5136866;27;20474;-41
2021/04/19 00:21:59;;;;;;;12.27;6.37;;;;;;;7.85;71.54;102149.09;5136425;27;20027;-41
2021/04/19 00:24:24;;;;;;;11.67;6.33;;;;;;;7.91;71.08;102150.28;5136516;27;20027;-41
2021/04/19 00:26:49;;;;;;;9.47;6.37;;;;;;;7.95;71.14;102154.25;5136674;27;20027;-41
2021/04/19 00:29:15;;;;;;;10.90;6.40;;;;;;;7.91;70.80;102145.72;5136354;27;20043;-40
2021/04/19 00:31:40;;;;;;;10.00;6.00;;;;;;;7.84;70.59;102147.44;5135906;27;20409;-41
2021/04/19 00:34:06;;;;;;;13.20;6.43;;;;;;;7.89;71.07;102147.72;5136616;27;20023;-40
2021/04/19 00:36:31;;;;;;;11.43;5.93;;;;;;;7.79;71.26;102151.69;5136519;27;20030;-41
2021/04/19 00:38:56;;;;;;;9.90;5.97;;;;;;;7.75;71.50;102154.75;5136134;27;20473;-41
2021/04/19 00:41:22;;;;;;;10.40;6.37;;;;;;;7.61;71.32;102157.38;5136645;27;20024;-40
2021/04/19 00:43:47;;;;;;;12.30;6.93;;;;;;;7.58;71.37;102155.06;5136011;27;20364;-41
2021/04/19 00:46:13;;;;;;;8.43;6.20;;;;;;;7.55;71.48;102148.16;5135962;27;20031;-41
2021/04/19 00:48:38;;;;;;;9.43;6.03;;;;;;;7.38;71.84;102150.16;5135734;27;20057;-40
2021/04/19 00:51:05;;;;;;;12.67;6.53;;;;;;;7.42;72.32;102140.72;5136188;27;20254;-41
2021/04/19 00:53:31;;;;;;;11.00;6.82;;;;;;;7.35;71.98;102142.41;5136222;27;20479;-40
2021/04/19 00:55:56;;;;;;;8.57;5.43;;;;;;;7.45;71.99;102143.03;5135725;27;20066;-40
2021/04/19 00:58:28;;;;;;;7.10;5.23;;;;;;;7.40;72.06;102147.28;5136011;27;20425;-40
2021/04/19 01:00:54;;;;;;;8.18;5.20;;;;;;;7.39;71.53;102146.44;5135941;27;20027;-41
2021/04/19 01:03:21;;;;;;;9.80;5.80;;;;;;;7.39;71.43;102140.22;5135657;27;20391;-41
2021/04/19 01:05:46;;;;;;;;;;;;;;;7.51;70.81;102144.16;5136092;27;20031;-41
2021/04/19 01:08:12;;;;;;;13.15;5.28;;;;;;;7.42;71.38;102140.72;5135587;27;20021;-41
2021/04/19 01:10:38;;;;;;;7.63;5.33;;;;;;;7.37;71.64;102142.22;5136047;27;20046;-45
2021/04/19 01:13:05;;;;;;;10.27;5.15;;;;;;;7.36;71.29;102144.09;5135420;27;20027;-41
2021/04/19 01:15:31;;;;;;;7.82;5.25;;;;;;;7.26;71.82;102139.97;5136245;27;20019;-40
2021/04/19 01:17:57;;;;;;;10.32;5.13;;;;;;;7.23;72.11;102142.00;5135422;27;20027;-40
2021/04/19 01:20:25;;;;;;;10.93;5.60;;;;;;;7.27;71.79;102141.63;5135611;27;20110;-40
2021/04/19 01:22:51;;;;;;;17.98;6.05;;;;;;;7.19;71.66;102142.53;5135479;27;20382;-41
2021/04/19 01:25:24;;;;;;;10.48;6.28;;;;;;;7.16;72.08;102137.50;5135273;27;20481;-40
2021/04/19 01:27:50;;;;;;;9.38;5.22;;;;;;;7.18;72.11;102139.00;5134899;27;20031;-41
2021/04/19 01:30:18;;;;;;;7.53;5.18;;;;;;;7.20;71.69;102136.13;5135603;27;20031;-40
2021/04/19 01:32:44;;;;;;;8.55;6.18;;;;;;;7.15;71.97;102133.97;5134731;27;20023;-40
2021/04/19 01:35:10;;;;;;;11.02;5.35;;;;;;;7.18;71.52;102127.41;5134801;27;20140;-40
2021/04/19 01:37:37;;;;;;;9.55;5.65;;;;;;;7.13;71.98;102132.47;5134626;27;20095;-40
2021/04/19 01:40:03;;;;;;;;;;;;;;;7.26;70.23;102127.34;5135952;27;20031;-40
2021/04/19 01:42:28;;;;;;;10.02;5.22;;;;;;;7.17;71.89;102134.66;5135175;27;19929;-41
2021/04/19 01:44:53;;;;;;;11.80;6.10;;;;;;;7.10;70.10;102133.66;5135338;27;20023;-40
2021/04/19 01:47:19;;;;;;;11.17;5.43;;;;;;;7.13;71.54;102124.41;5135332;27;20039;-40
2021/04/19 01:49:44;;;;;;;7.07;5.43;;;;;;;6.95;72.86;102130.88;5135237;27;20051;-40
2021/04/19 01:52:09;;;;;;;8.70;6.13;;;;;;;7.01;72.20;102133.88;5134384;27;20035;-40
2021/04/19 01:54:35;;;;;;;8.53;5.67;;;;;;;6.87;73.14;102128.22;5134758;27;20110;-40
2021/04/19 01:57:00;;;;;;;10.67;5.93;;;;;;;6.86;73.32;102126.56;5134386;27;20066;-40
2021/04/19 01:59:26;;;;;;;9.07;5.35;;;;;;;6.85;73.15;102132.13;5134923;27;20031;-40
2021/04/19 02:02:21;;;;;;;11.13;5.75;;;;;;;6.87;72.64;102128.22;5134839;27;20027;-40
2021/04/19 02:04:55;;;;;;;6.85;5.38;;;;;;;6.82;73.09;102127.91;5135038;27;20027;-40
2021/04/19 02:07:39;;;;;;;7.57;5.50;;;;;;;6.84;73.29;102117.00;5134500;27;20070;-40
2021/04/19 02:10:41;;;;;;;7.75;5.13;;;;;;;6.87;73.07;102116.63;5134294;27;20544;-40
2021/04/19 02:13:45;;;;;;;8.80;5.50;;;;;;;6.75;73.84;102116.19;5134909;27;20439;-40
2021/04/19 02:16:20;;;;;;;9.70;5.75;;;;;;;6.59;74.36;102109.03;5091172;28;20040;-40
2021/04/19 02:19:01;;;;;;;13.07;6.30;;;;;;;6.62;73.99;102111.38;5091350;28;20044;-40
2021/04/19 02:21:37;;;;;;;9.55;6.43;;;;;;;6.70;73.73;102110.50;5091103;28;20028;-40
2021/04/19 02:24:06;;;;;;;10.38;6.28;;;;;;;6.65;73.84;102100.28;5090825;28;20476;-40
2021/04/19 02:26:35;;;;;;;11.65;5.78;;;;;;;6.57;74.49;102097.59;5091347;28;20182;-40
2021/04/19 02:29:13;;;;;;;9.35;6.00;;;;;;;6.55;74.15;102096.97;5090898;28;20111;-40
2021/04/19 02:31:43;;;;;;;7.88;5.30;;;;;;;6.60;73.87;102093.75;5090662;28;20047;-40
2021/04/19 02:34:13;;;;;;;9.40;6.13;;;;;;;6.63;73.09;102098.75;5091478;28;20039;-40
2021/04/19 02:36:48;;;;;;;7.35;5.30;;;;;;;6.65;73.15;102091.38;5091396;28;20055;-40
2021/04/19 02:39:16;;;;;;;12.02;5.82;;;;;;;6.59;74.47;102094.78;5091705;28;20032;-40
2021/04/19 02:41:42;;;;;;;11.13;6.35;;;;;;;6.59;74.55;102092.91;5090876;28;20524;-40
2021/04/19 02:44:09;;;;;;;10.88;6.38;;;;;;;6.56;73.33;102098.63;5090668;28;20031;-40
2021/04/19 02:46:36;;;;;;;8.48;5.90;;;;;;;6.56;74.54;102089.72;5091055;28;20543;-40
2021/04/19 02:49:04;;;;;;;9.77;5.97;;;;;;;6.56;74.07;102092.41;5090579;28;20048;-40
2021/04/19 02:51:32;;;;;;;9.30;6.10;;;;;;;6.55;74.76;102091.59;5108017;28;20395;-40
2021/04/19 02:54:01;;;;;;;10.75;6.00;;;;;;;6.56;74.30;102087.03;5133740;28;20038;-40
2021/04/19 02:56:29;;;;;;;9.88;6.10;;;;;;;6.51;74.51;102092.09;5137147;27;20031;-40
2021/04/19 02:58:58;;;;;;;12.00;6.78;;;;;;;6.50;74.49;102098.50;5138246;27;20027;-40
2021/04/19 03:01:24;;;;;;;8.65;5.57;;;;;;;6.44;74.45;102091.94;5137793;27;20015;-40
2021/04/19 03:03:50;;;;;;;7.97;5.93;;;;;;;6.34;73.22;102096.69;5137952;27;20073;-40
2021/04/19 03:06:18;;;;;;;9.98;6.00;;;;;;;6.17;74.75;102095.91;5138298;27;20096;-41
2021/04/19 03:08:54;;;;;;;10.55;6.15;;;;;;;6.18;73.97;102102.94;5138168;27;20023;-40
2021/04/19 03:11:42;;;;;;;8.60;5.68;;;;;;;6.17;73.91;102106.63;5136489;27;20176;-40
2021/04/19 03:14:11;;;;;;;8.40;6.50;;;;;;;5.98;74.29;102107.84;5138327;27;20034;-40
2021/04/19 03:16:41;;;;;;;9.52;6.18;;;;;;;5.99;74.68;102109.50;5137817;27;20023;-40
2021/04/19 03:19:10;;;;;;;9.77;6.40;;;;;;;5.96;75.44;102112.56;5137943;27;20046;-40
2021/04/19 03:21:39;;;;;;;10.20;6.32;;;;;;;5.88;73.95;102113.34;5137577;27;20394;-40
2021/04/19 03:24:08;;;;;;;8.35;6.22;;;;;;;5.88;75.37;102116.03;5137823;27;20114;-40
2021/04/19 03:26:34;;;;;;;8.30;6.03;;;;;;;5.82;74.39;102116.72;5137528;27;20027;-40
2021/04/19 03:29:01;;;;;;;8.57;6.00;;;;;;;5.85;75.07;102121.72;5138283;27;20027;-40
2021/04/19 03:31:40;;;;;;;10.80;6.97;;;;;;;5.75;76.04;102109.50;5136940;27;20019;-40
2021/04/19 03:34:11;;;;;;;10.50;7.38;;;;;;;5.83;76.14;102113.03;5137994;27;20035;-40
2021/04/19 03:36:37;;;;;;;9.48;6.50;;;;;;;5.94;76.09;102114.56;5137716;27;20389;-41
2021/04/19 03:39:05;;;;;;;9.90;6.90;;;;;;;5.88;76.53;102113.34;5138111;27;20027;-41
2021/04/19 03:41:35;;;;;;;11.18;7.18;;;;;;;5.94;76.34;102109.19;5136987;27;20612;-40
2021/04/19 03:44:04;;;;;;;10.20;7.28;;;;;;;5.94;76.88;102107.34;5137452;27;20039;-41
2021/04/19 03:46:32;;;;;;;11.55;7.88;;;;;;;5.99;76.75;102111.34;5137376;27;20027;-41
2021/04/19 03:49:06;;;;;;;11.02;7.55;;;;;;;5.93;76.78;102110.19;5137008;27;20433;-41
2021/04/19 03:51:33;;;;;;;12.60;7.78;;;;;;;5.92;77.26;102112.03;5137347;27;20047;-40
2021/04/19 03:54:01;;;;;;;9.35;7.40;;;;;;;5.88;77.14;102099.94;5136928;27;20027;-40
2021/04/19 03:56:29;;;;;;;12.15;7.57;;;;;;;5.86;77.12;102117.22;5137470;27;20114;-40
2021/04/19 03:58:58;;;;;;;9.32;6.90;;;;;;;5.87;78.13;102108.16;5136863;27;20035;-40
2021/04/19 04:01:24;;;;;;;9.82;7.22;;;;;;;5.84;76.93;102109.31;5137153;27;20035;-40
2021/04/19 04:03:51;;;;;;;8.82;6.82;;;;;;;5.81;75.39;102108.84;5136821;27;20045;-40
2021/04/19 04:06:17;;;;;;;10.77;7.28;;;;;;;5.82;76.59;102111.34;5136592;27;20027;-40
2021/04/19 04:08:44;;;;;;;14.18;7.68;;;;;;;5.78;77.43;102099.28;5135963;27;20046;-40
2021/04/19 04:11:10;;;;;;;14.18;8.00;;;;;;;5.77;76.96;102094.91;5136494;27;20471;-41
2021/04/19 04:13:36;;;;;;;11.18;7.50;;;;;;;5.76;77.74;102098.63;5136865;27;20019;-40
2021/04/19 04:16:01;;;;;;;12.30;8.20;;;;;;;5.71;78.28;102095.59;5136697;27;20034;-40
2021/04/19 04:18:27;;;;;;;10.80;7.78;;;;;;;5.83;77.92;102094.22;5136551;27;20015;-40
2021/04/19 04:20:53;;;;;;;13.35;8.15;;;;;;;5.80;78.35;102094.56;5136525;27;20023;-40
2021/04/19 04:23:19;;;;;;;12.30;8.85;;;;;;;5.79;78.43;102092.06;5136455;27;20031;-40
2021/04/19 04:25:45;;;;;;;13.98;8.70;;;;;;;5.75;77.83;102091.53;5136997;27;20031;-40
2021/04/19 04:28:12;;;;;;;12.15;8.35;;;;;;;5.73;77.85;102085.53;5136328;27;20031;-40
2021/04/19 04:30:37;;;;;;;;;;;;;;;5.84;76.20;102103.97;5137003;27;20031;-40
2021/04/19 04:33:04;;;;;;;13.60;9.70;;;;;;;5.65;78.41;102107.81;5134443;27;19912;-40
2021/04/19 04:35:30;;;;;;;12.68;8.90;;;;;;;5.64;78.00;102094.56;5136314;27;20031;-40
2021/04/19 04:37:57;;;;;;;14.57;9.40;;;;;;;5.68;77.78;102099.44;5135785;27;20031;-40
2021/04/19 04:40:23;;;;;;;13.43;9.18;;;;;;;5.60;78.65;102095.91;5135769;27;20527;-40
2021/04/19 04:42:52;;;;;;;13.13;9.55;;;;;;;5.56;78.88;102091.88;5134616;27;20039;-40
2021/04/19 04:45:17;;;;;;;12.15;9.43;;;;;;;5.49;79.19;102088.22;5136289;27;20027;-40
2021/04/19 04:48:01;;;;;;;17.77;11.20;;;;;;;5.51;79.10;102103.13;5135936;27;20030;-40
2021/04/19 04:50:44;;;;;;;17.05;9.60;;;;;;;5.50;79.15;102105.97;5136294;27;20104;-40
2021/04/19 04:53:18;;;;;;;14.20;9.82;;;;;;;5.45;78.82;102100.28;5136169;27;20023;-40
2021/04/19 04:55:46;;;;;;;12.63;9.35;;;;;;;5.43;79.88;102101.28;5136309;27;20046;-40
2021/04/19 04:58:13;;;;;;;15.57;9.65;;;;;;;5.43;79.43;102111.19;5135659;27;20023;-40
2021/04/19 05:00:39;;;;;;;13.98;10.02;;;;;;;5.37;78.48;102104.63;5135401;27;20470;-40
2021/04/19 05:03:07;;;;;;;13.82;9.65;;;;;;;5.41;78.66;102111.31;5135924;27;20042;-40
2021/04/19 05:05:33;;;;;;;13.82;9.88;;;;;;;5.47;79.28;102103.66;5135300;27;20493;-40
2021/04/19 05:07:59;;;;;;;18.03;10.07;;;;;;;5.48;79.25;102105.31;5135194;27;20023;-40
2021/04/19 05:10:25;;;;;;;14.23;9.73;;;;;;;5.53;79.56;102102.97;5136161;27;20023;-40
2021/04/19 05:12:50;;;;;;;12.27;9.75;;;;;;;5.54;79.32;102107.31;5135367;27;20026;-40
2021/04/19 05:15:16;;;;;;;13.77;10.20;;;;;;;5.50;79.53;102100.59;5135433;27;20371;-40
2021/04/19 05:17:42;;;;;;;13.40;10.23;;;;;;;5.53;80.04;102092.25;5135234;27;20459;-40
2021/04/19 05:20:10;;;;;;;15.40;10.80;;;;;;;5.45;80.01;102097.59;5135658;27;20408;-40
2021/04/19 05:22:36;;;;;;;14.30;10.63;;;;;;;5.52;80.22;102095.94;5135943;27;20050;-40
2021/04/19 05:25:05;;;;;;;16.63;11.57;;;;;;;5.54;80.66;102097.44;5135308;27;20027;-40
2021/04/19 05:27:31;;;;;;;17.50;11.10;;;;;;;5.52;80.78;102099.44;5134835;27;20117;-40
2021/04/19 05:29:56;;;;;;;;;;;;;;;5.67;78.70;102099.63;5135883;27;20419;-40
2021/04/19 05:32:22;;;;;;;14.32;10.85;;;;;;;5.61;79.80;102098.44;5135336;27;19962;-40
2021/04/19 05:34:49;;;;;;;17.03;11.90;;;;;;;5.70;80.43;102112.69;5135068;27;20023;-40
2021/04/19 05:37:17;;;;;;;17.42;11.73;;;;;;;5.60;81.06;102102.13;5134649;27;20035;-41
2021/04/19 05:39:42;;;;;;;22.73;12.02;;;;;;;5.58;81.54;102106.81;5134906;27;20435;-40
2021/04/19 05:42:09;;;;;;;19.13;11.93;;;;;;;5.60;81.28;102112.00;5134913;27;20027;-40
2021/04/19 05:44:35;;;;;;;18.50;11.73;;;;;;;5.60;81.39;102117.38;5135661;27;20551;-40
2021/04/19 05:47:01;;;;;;;17.50;12.40;;;;;;;5.62;81.12;102108.16;5135313;27;20098;-40
2021/04/19 05:49:27;;;;;;;18.48;12.77;;;;;;;5.63;81.84;102117.06;5135842;27;20297;-40
2021/04/19 05:51:56;;;;;;;14.93;11.37;;;;;;;5.60;81.71;102112.00;5134513;27;20083;-40
2021/04/19 05:54:22;;;;;;;18.98;12.38;;;;;;;5.60;81.93;102117.38;5134909;27;20019;-40
2021/04/19 05:57:08;;;;;;;15.77;11.50;;;;;;;5.67;81.34;102111.19;5135092;27;20383;-40
2021/04/19 05:59:59;;;;;;;18.48;13.38;;;;;;;5.68;81.64;102117.41;5134694;27;20106;-40
2021/04/19 06:02:34;;;;;;;16.95;11.63;;;;;;;5.69;81.64;102114.53;5133616;27;20023;-40
2021/04/19 06:05:07;;;;;;;17.85;13.32;;;;;;;5.66;81.90;102117.56;5134471;27;20034;-40
2021/04/19 06:07:41;;;;;;;20.15;12.75;;;;;;;5.72;81.67;102115.22;5134459;27;20459;-40
2021/04/19 06:10:39;;;;;;;17.23;12.20;;;;;;;5.74;81.95;102119.41;5134536;27;20036;-40
2021/04/19 06:13:07;;;;;;;19.67;13.10;;;;;;;5.74;82.49;102129.31;5071251;28;20475;-40
2021/04/19 06:15:34;;;;;;;19.55;13.48;;;;;;;5.86;82.18;102126.13;5070847;28;20036;-40
2021/04/19 06:18:00;;;;;;;19.48;13.75;;;;;;;5.79;82.41;102122.41;5070921;28;20028;-40
2021/04/19 06:20:26;;;;;;;18.10;13.52;;;;;;;5.87;82.38;102121.59;5070901;28;20062;-40
2021/04/19 06:22:54;;;;;;;16.15;12.23;;;;;;;5.97;82.30;102124.13;5071351;28;20123;-40
2021/04/19 06:25:21;;;;;;;20.55;13.57;;;;;;;6.02;82.39;102127.16;5071169;28;20392;-40
2021/04/19 06:27:47;;;;;;;17.05;11.98;;;;;;;6.04;81.98;102125.13;5070735;28;20032;-40
2021/04/19 06:30:19;;;;;;;16.35;12.52;;;;;;;6.09;81.43;102115.53;5070631;28;20094;-40
2021/04/19 06:32:47;;;;;;;19.45;13.48;;;;;;;6.03;81.81;102120.75;5071108;28;20119;-40
2021/04/19 06:35:15;;;;;;;22.48;13.50;;;;;;;6.05;81.96;102119.59;5071460;28;20072;-40
2021/04/19 06:37:41;;;;;;;17.50;12.15;;;;;;;6.14;81.60;102113.16;5071209;28;20056;-40
2021/04/19 06:40:07;;;;;;;19.92;13.00;;;;;;;6.15;82.26;102112.19;5070990;28;20113;-40
2021/04/19 06:42:33;;;;;;;19.17;12.88;;;;;;;6.20;81.49;102119.72;5071007;28;20048;-40
2021/04/19 06:45:08;;;;;;;14.77;12.70;;;;;;;6.33;81.42;102114.66;5071038;28;20062;-40
2021/04/19 06:47:37;;;;;;;17.83;13.18;;;;;;;6.39;81.21;102116.66;5074172;28;20169;-40
2021/04/19 06:50:05;;;;;;;16.33;11.90;;;;;;;6.50;81.34;102114.63;5134898;27;20047;-40
2021/04/19 06:52:31;;;;;;;16.23;12.13;;;;;;;6.61;80.98;102127.66;5134341;27;20039;-40
2021/04/19 06:54:57;;;;;;;17.20;12.75;;;;;;;6.63;81.18;102120.25;5133333;28;20041;-40
2021/04/19 06:57:23;;;;;;;19.53;13.13;;;;;;;6.69;81.62;102125.81;5134087;27;20455;-40
2021/04/19 06:59:48;;;;;;;;;;;;;;;6.79;79.91;102124.75;5135095;27;20027;-40
2021/04/19 07:02:21;;;;;;;19.48;13.23;;;;;;;6.76;80.84;102131.31;5134002;27;20370;-40
2021/04/19 07:04:51;;;;;;;16.40;13.13;;;;;;;6.57;82.21;102132.53;5134488;28;20050;-40
2021/04/19 07:07:23;;;;;;;19.42;14.65;;;;;;;6.51;82.22;102137.78;5133855;27;20428;-40
2021/04/19 07:09:51;;;;;;;18.40;13.55;;;;;;;6.55;82.53;102128.38;5133914;27;20506;-40
2021/04/19 07:12:20;;;;;;;21.23;15.50;;;;;;;6.38;83.45;102132.94;5133802;27;20521;-40
2021/04/19 07:14:51;;;;;;;21.75;14.40;;;;;;;6.44;83.01;102130.41;5134228;27;20081;-40
2021/04/19 07:17:17;;;;;;;18.25;12.95;;;;;;;6.51;82.75;102132.41;5133976;27;20046;-40
2021/04/19 07:19:44;;;;;;;17.58;12.57;;;;;;;6.50;83.25;102130.75;5133940;27;20019;-40
2021/04/19 07:22:10;;;;;;;17.55;14.00;;;;;;;6.55;83.20;102128.38;5134016;27;20032;-40
2021/04/19 07:24:37;;;;;;;20.08;13.68;;;;;;;6.55;83.60;102109.56;5134375;27;20031;-40
2021/04/19 07:27:03;;;;;;;18.48;12.52;;;;;;;6.57;82.71;102102.97;5133827;27;20027;-40
2021/04/19 07:29:29;;;;;;;19.20;14.05;;;;;;;6.55;83.17;102096.13;5134029;27;20027;-40
2021/04/19 07:31:57;;;;;;;17.40;13.98;;;;;;;6.51;82.69;102092.09;5134460;27;20480;-40
2021/04/19 07:34:26;;;;;;;19.50;14.82;;;;;;;6.53;83.34;102100.81;5134367;27;20105;-40
2021/04/19 07:37:00;;;;;;;18.48;13.55;;;;;;;6.54;83.62;102110.53;5134061;27;20031;-40
2021/04/19 07:39:37;;;;;;;18.83;13.82;;;;;;;6.56;83.46;102106.69;5133419;27;20015;-40
2021/04/19 07:42:05;;;;;;;15.15;13.10;;;;;;;6.58;83.04;102098.44;5135846;27;20409;-40
2021/04/19 07:44:37;;;;;;;17.58;12.75;;;;;;;6.55;83.99;102085.38;5137882;27;20037;-40
2021/04/19 07:47:20;;;;;;;17.83;13.43;;;;;;;6.55;84.62;102070.09;5137593;27;20023;-40
2021/04/19 07:50:11;;;;;;;21.73;14.98;;;;;;;6.55;85.35;102061.19;5137556;27;20107;-40
2021/04/19 07:52:54;;;;;;;22.63;14.30;;;;;;;6.54;85.45;102057.66;5128288;27;20043;-40
2021/04/19 07:55:22;;;;;;;22.73;15.15;;;;;;;6.51;85.47;102058.00;5137336;27;20077;-40
2021/04/19 07:57:48;;;;;;;21.17;15.15;;;;;;;6.56;85.72;102054.78;5136732;27;20019;-40
2021/04/19 08:00:24;;;;;;;;;;;;;;;6.69;83.83;102065.81;5138057;27;20022;-40
2021/04/19 08:03:04;;;;;;;16.98;13.02;;;;;;;6.68;85.36;102064.13;5136949;27;20334;-40
2021/04/19 08:05:38;;;;;;;24.48;15.55;;;;;;;6.67;85.71;102076.72;5137456;27;20104;-40
2021/04/19 08:08:05;;;;;;;22.00;15.80;;;;;;;6.78;85.38;102083.56;5136858;27;20459;-40
2021/04/19 08:10:31;;;;;;;22.08;15.65;;;;;;;6.77;85.29;102100.72;5136901;27;20031;-40
2021/04/19 08:13:02;;;;;;;24.15;18.05;;;;;;;6.77;86.43;102110.63;5137447;27;20030;-40
2021/04/19 08:15:27;;;;;;;20.25;15.45;;;;;;;6.83;86.37;102104.53;5136788;27;20113;-40
2021/04/19 08:18:08;;;;;;;20.40;15.90;;;;;;;6.89;86.85;102114.63;5136719;27;20486;-40
2021/04/19 08:20:35;;;;;;;20.58;15.68;;;;;;;6.95;86.65;102114.75;5137244;27;20118;-40
2021/04/19 08:23:11;;;;;;;22.58;17.08;;;;;;;7.00;86.84;102108.84;5135238;27;20393;-39
2021/04/19 08:25:46;;;;;;;21.67;17.85;;;;;;;7.08;87.11;102107.97;5137063;27;20023;-39
2021/04/19 08:28:15;;;;;;;23.38;17.58;;;;;;;7.06;87.22;102109.97;5136158;27;20470;-39
2021/04/19 08:30:42;;;;;;;20.65;16.55;;;;;;;7.15;86.25;102108.91;5136586;27;20445;-39
2021/04/19 08:33:09;;;;;;;21.02;15.45;;;;;;;7.26;86.17;102110.38;5136545;27;20019;-39
2021/04/19 08:35:35;;;;;;;20.58;17.08;;;;;;;7.33;85.83;102109.47;5136632;27;20030;-39
2021/04/19 08:38:02;;;;;;;22.10;17.80;;;;;;;7.29;86.00;102105.47;5135004;27;20035;-40
2021/04/19 08:40:29;;;;;;;21.10;17.23;;;;;;;7.33;85.19;102105.97;5136329;27;20023;-39
2021/04/19 08:42:56;;;;;;;22.00;16.77;;;;;;;7.41;85.77;102090.56;5135876;27;20055;-40
2021/04/19 08:45:23;;;;;;;23.95;18.50;;;;;;;7.55;85.51;102088.13;5136499;27;20450;-40
2021/04/19 08:47:48;;;;;;;19.40;15.40;;;;;;;7.72;85.15;102095.88;5136161;27;20035;-39
2021/04/19 08:50:18;;;;;;;23.10;17.42;;;;;;;7.78;84.98;102105.09;5136922;27;20379;-39
2021/04/19 08:52:44;;;;;;;20.05;16.23;;;;;;;7.85;84.38;102106.03;5135584;27;20134;-39
2021/04/19 08:55:12;;;;;;;23.23;17.65;;;;;;;7.92;84.08;102104.28;5136154;27;20105;-39
2021/04/19 08:57:41;;;;;;;21.33;17.90;;;;;;;8.03;85.33;102096.78;5136118;27;20056;-39
2021/04/19 09:00:07;;;;;;;21.77;17.25;;;;;;;8.05;83.97;102097.41;5135977;27;20027;-39
2021/04/19 09:02:32;;;;;;;21.75;18.08;;;;;;;8.11;83.18;102092.16;5135778;27;20031;-39
2021/04/19 09:05:14;;;;;;;20.73;18.00;;;;;;;8.06;83.66;102096.44;5135525;27;20463;-39
2021/04/19 09:07:42;;;;;;;25.25;18.52;;;;;;;8.05;83.21;102106.34;5135738;27;20019;-40
2021/04/19 09:10:10;;;;;;;25.05;19.75;;;;;;;7.98;84.40;102100.03;5136208;27;20359;-40
2021/04/19 09:12:36;;;;;;;22.70;18.73;;;;;;;8.01;83.21;102105.06;5135446;27;20375;-39
2021/04/19 09:15:33;;;;;;;26.02;19.58;;;;;;;8.07;84.05;102106.19;5135837;27;20023;-40
2021/04/19 09:18:04;;;;;;;25.33;18.77;;;;;;;8.15;84.81;102108.75;5072397;28;20190;-39
2021/04/19 09:20:50;;;;;;;22.92;17.63;;;;;;;8.25;84.07;102112.88;5072231;28;20029;-39
2021/04/19 09:23:31;;;;;;;21.75;18.75;;;;;;;8.00;85.09;102112.31;5072006;28;20040;-39
2021/04/19 09:25:57;;;;;;;21.58;19.08;;;;;;;7.98;84.40;102116.19;5072316;28;20032;-39
2021/04/19 09:28:41;;;;;;;;;;;;;;;8.10;83.97;102113.88;5072887;28;20089;-39
2021/04/19 09:31:07;;;;;;;17.33;15.25;;;;;;;8.16;83.30;102118.53;5071995;28;19908;-40
2021/04/19 09:33:32;;;;;;;23.25;18.42;;;;;;;8.20;84.00;102103.69;5071569;28;20115;-40
2021/04/19 09:35:58;;;;;;;25.53;18.17;;;;;;;8.21;83.89;102111.59;5071804;28;20532;-39
2021/04/19 09:38:42;;;;;;;27.00;19.90;;;;;;;8.18;84.01;102111.94;5072205;28;20109;-39
2021/04/19 09:41:13;;;;;;;27.85;19.98;;;;;;;8.18;84.21;102111.09;5072150;28;20451;-39
2021/04/19 09:43:40;;;;;;;25.95;19.90;;;;;;;8.11;84.06;102116.41;5071633;28;20387;-39
2021/04/19 09:46:09;;;;;;;25.92;19.98;;;;;;;8.03;84.90;102110.25;5071656;28;20112;-40
2021/04/19 09:48:41;;;;;;;25.05;20.75;;;;;;;7.90;84.96;102121.63;5071566;28;20140;-39
2021/04/19 09:51:16;;;;;;;24.40;20.75;;;;;;;7.97;85.01;102115.34;5072128;28;20052;-39
2021/04/19 09:54:08;;;;;;;24.17;19.35;;;;;;;8.13;84.52;102118.91;5086901;27;20031;-40
2021/04/19 09:56:35;;;;;;;22.38;19.50;;;;;;;8.18;84.23;102111.09;5127360;27;20051;-40
2021/04/19 09:59:01;;;;;;;26.40;19.92;;;;;;;8.29;85.25;102115.19;5134349;27;20483;-39
2021/04/19 10:01:28;;;;;;;24.15;19.45;;;;;;;8.36;84.28;102114.31;5134555;27;20056;-39
2021/04/19 10:03:56;;;;;;;21.48;18.58;;;;;;;8.44;83.78;102122.31;5134687;27;20038;-39
2021/04/19 10:06:28;;;;;;;23.35;19.50;;;;;;;8.54;84.69;102111.25;5133676;27;20035;-40
2021/04/19 10:08:56;;;;;;;21.30;18.80;;;;;;;8.56;83.16;102117.28;5134918;27;20077;-39
2021/04/19 10:11:24;;;;;;;21.80;18.00;;;;;;;8.65;83.78;102112.63;5134717;27;20055;-40
2021/04/19 10:13:49;;;;;;;22.27;18.92;;;;;;;8.64;83.60;102110.97;5134501;27;20475;-40
2021/04/19 10:16:16;;;;;;;21.05;18.73;;;;;;;8.66;83.96;102112.44;5134890;27;20031;-39
2021/04/19 10:18:48;;;;;;;22.08;18.52;;;;;;;8.60;83.16;102113.19;5134217;27;20030;-39
2021/04/19 10:21:30;;;;;;;21.80;18.48;;;;;;;8.68;83.30;102106.84;5135176;27;20088;-40
2021/04/19 10:23:57;;;;;;;21.30;19.00;;;;;;;8.75;83.42;102107.78;5134757;27;20066;-40
2021/04/19 10:26:39;;;;;;;19.67;17.48;;;;;;;8.82;83.01;102103.31;5134570;27;20027;-40
2021/04/19 10:29:19;;;;;;;22.58;18.23;;;;;;;8.93;82.41;102107.38;5135009;27;20084;-39
2021/04/19 10:31:46;;;;;;;26.55;17.90;;;;;;;9.06;82.72;102110.22;5134875;27;20037;-40
2021/04/19 10:34:12;;;;;;;19.52;17.25;;;;;;;9.27;82.45;102101.31;5134163;27;20518;-40
2021/04/19 10:36:49;;;;;;;21.60;19.30;;;;;;;9.21;81.83;102110.19;5134483;27;20051;-40
2021/04/19 10:39:17;;;;;;;20.85;17.23;;;;;;;9.27;81.67;102101.31;5134231;27;20471;-40
2021/04/19 10:41:45;;;;;;;19.38;17.27;;;;;;;9.19;81.86;102105.00;5134731;27;20375;-40
2021/04/19 10:44:12;;;;;;;19.02;16.85;;;;;;;9.27;81.77;102106.72;5134761;27;20023;-40
2021/04/19 10:46:40;;;;;;;20.48;16.88;;;;;;;9.22;82.39;102104.63;5134994;27;20023;-40
2021/04/19 10:49:07;;;;;;;18.83;16.75;;;;;;;9.22;82.08;102101.91;5134185;27;20035;-40
2021/04/19 10:51:37;;;;;;;17.92;16.02;;;;;;;9.15;81.48;102106.38;5134096;27;20031;-39
2021/04/19 10:54:08;;;;;;;17.85;15.82;;;;;;;9.18;81.70;102099.78;5134039;27;20038;-39
2021/04/19 10:56:35;;;;;;;20.00;16.38;;;;;;;9.14;82.36;102102.03;5133804;27;20501;-40
2021/04/19 10:59:07;;;;;;;17.55;15.23;;;;;;;9.20;81.27;102105.81;5132799;28;20379;-39
2021/04/19 11:01:35;;;;;;;20.30;17.23;;;;;;;9.17;82.88;102103.50;5134341;27;20023;-40
2021/04/19 11:04:03;;;;;;;18.63;16.60;;;;;;;9.20;81.83;102101.25;5133630;27;20463;-40
2021/04/19 11:06:28;;;;;;;18.65;16.55;;;;;;;9.20;81.33;102097.72;5134058;27;20360;-40
2021/04/19 11:09:16;;;;;;;19.38;16.25;;;;;;;9.28;81.68;102105.72;5134013;27;20031;-40
2021/04/19 11:11:43;;;;;;;19.95;17.35;;;;;;;9.24;83.13;102104.41;5134755;27;20050;-39
2021/04/19 11:14:19;;;;;;;21.02;18.83;;;;;;;9.23;83.49;102092.78;5134036;27;20027;-39
2021/04/19 11:16:59;;;;;;;23.98;19.02;;;;;;;9.19;82.81;102088.78;5135612;27;20063;-39
2021/04/19 11:19:28;;;;;;;20.27;18.20;;;;;;;9.09;83.54;102095.53;5137732;27;20055;-40
2021/04/19 11:21:53;;;;;;;19.27;16.95;;;;;;;9.16;83.29;102104.53;5138310;27;20031;-40
2021/04/19 11:24:19;;;;;;;20.45;18.30;;;;;;;9.19;83.74;102099.59;5137660;27;20564;-40
2021/04/19 11:26:44;;;;;;;20.43;18.23;;;;;;;9.24;83.38;102102.56;5138194;27;20027;-40
2021/04/19 11:29:09;;;;;;;19.20;17.23;;;;;;;9.22;83.00;102099.22;5137653;27;20487;-40
2021/04/19 11:31:44;;;;;;;20.10;17.87;;;;;;;9.33;84.16;102095.16;5138238;27;20023;-40
2021/04/19 11:34:13;;;;;;;20.40;17.67;;;;;;;9.33;84.21;102095.16;5137411;27;20038;-40